Terminal Aerodrome Forecast
Issued by NWS

Home | Current Version | Previous Version | Text Only | Print | Product List | Glossary On
Versions: 1 2 3 4 5 6 7 8 9 10 11 12 13 14 15 16 17 18 19 20 21 22
206
FTUS43 KLSX 221521 AAB
TAFCPS
TAF AMD
KCPS 221521Z 2215/2312 19006KT 2SM BR VV002
     FM221600 21006KT 4SM BR BKN006
     FM221700 21005KT P6SM SCT010
     FM230900 00000KT P6SM BKN150=

USA.gov is the U.S. government's official web portal to all federal, state and local government web resources and services.